createdAt,value
2017-08-23T00:00:06.528Z,77.31
2017-08-23T00:00:27.287Z,77.48
2017-08-23T00:00:42.592Z,77.36
2017-08-23T00:00:51.329Z,77.37
2017-08-23T00:01:01.084Z,77.48
2017-08-23T00:01:18.809Z,77.37
2017-08-23T00:01:28.548Z,77.31
2017-08-23T00:01:38.268Z,77.44
2017-08-23T00:01:48.021Z,77.29
2017-08-23T00:01:57.742Z,77.52
2017-08-23T00:02:07.500Z,77.38
2017-08-23T00:02:17.245Z,77.27
2017-08-23T00:02:26.972Z,77.49
2017-08-23T00:02:36.706Z,77.44
2017-08-23T00:02:46.477Z,77.39
2017-08-23T00:02:56.196Z,77.44
2017-08-23T00:03:11.126Z,77.37
2017-08-23T00:03:19.877Z,77.43
2017-08-23T00:03:29.624Z,77.32
2017-08-23T00:03:39.380Z,77.39
2017-08-23T00:03:49.105Z,77.33
2017-08-23T00:03:58.845Z,77.57
2017-08-23T00:04:08.574Z,77.43
2017-08-23T00:04:18.316Z,77.44
2017-08-23T00:04:28.065Z,77.54
2017-08-23T00:04:37.792Z,77.48
2017-08-23T00:04:47.533Z,77.45
2017-08-23T00:04:57.256Z,77.41
2017-08-23T00:05:07.024Z,77.55
2017-08-23T00:05:16.737Z,77.35
2017-08-23T00:05:26.477Z,77.34
2017-08-23T00:05:36.233Z,77.44
2017-08-23T00:05:56.238Z,77.07
2017-08-23T00:06:15.665Z,77.59
2017-08-23T00:06:35.402Z,77.45
2017-08-23T00:06:48.660Z,77.47
2017-08-23T00:06:57.843Z,77.42
2017-08-23T00:07:07.557Z,77.53
2017-08-23T00:07:17.284Z,77.48
2017-08-23T00:07:27.033Z,77.40
2017-08-23T00:07:36.774Z,77.62
2017-08-23T00:07:46.565Z,77.51
2017-08-23T00:07:56.237Z,77.49
2017-08-23T00:08:05.994Z,77.23
2017-08-23T00:08:20.921Z,77.31
2017-08-23T00:08:29.668Z,77.60
2017-08-23T00:08:39.419Z,77.17
2017-08-23T00:08:49.159Z,77.22
2017-08-23T00:08:58.906Z,77.31
2017-08-23T00:09:08.624Z,77.52
2017-08-23T00:09:18.369Z,77.45
2017-08-23T00:09:28.092Z,77.50
2017-08-23T00:09:37.828Z,77.47
2017-08-23T00:09:47.605Z,77.48
2017-08-23T00:10:06.593Z,77.18
2017-08-23T00:10:20.294Z,77.36
2017-08-23T00:10:36.268Z,77.36
2017-08-23T00:10:45.613Z,77.22
2017-08-23T00:10:55.344Z,77.26
2017-08-23T00:11:11.290Z,77.38
2017-08-23T00:11:20.672Z,77.40
2017-08-23T00:11:30.420Z,77.50
2017-08-23T00:11:40.137Z,77.48
2017-08-23T00:11:49.873Z,77.48
2017-08-23T00:12:04.816Z,77.37
2017-08-23T00:12:13.571Z,77.52
2017-08-23T00:12:23.303Z,77.53
2017-08-23T00:12:33.062Z,77.46
2017-08-23T00:12:42.768Z,77.45
2017-08-23T00:12:52.568Z,77.21
2017-08-23T00:13:02.261Z,77.41
2017-08-23T00:13:11.996Z,77.45
2017-08-23T00:13:21.744Z,77.45
2017-08-23T00:13:31.463Z,77.43
2017-08-23T00:13:41.624Z,77.57
2017-08-23T00:13:50.940Z,77.60
2017-08-23T00:14:00.688Z,77.44
2017-08-23T00:14:10.425Z,77.27
2017-08-23T00:14:20.161Z,77.41
2017-08-23T00:14:29.916Z,77.37
2017-08-23T00:14:39.652Z,77.60
2017-08-23T00:14:49.373Z,77.38
2017-08-23T00:15:04.324Z,77.09
2017-08-23T00:15:13.074Z,77.49
2017-08-23T00:15:32.007Z,77.44
2017-08-23T00:15:41.588Z,77.51
2017-08-23T00:16:01.595Z,77.27
2017-08-23T00:16:20.872Z,77.57
2017-08-23T00:16:30.484Z,77.47
2017-08-23T00:16:40.181Z,77.53
2017-08-23T00:16:55.140Z,77.56
2017-08-23T00:17:03.892Z,77.43
2017-08-23T00:17:13.637Z,77.40
2017-08-23T00:17:23.380Z,77.55
2017-08-23T00:17:33.121Z,77.64
2017-08-23T00:17:42.849Z,77.61
2017-08-23T00:17:52.628Z,77.65
2017-08-23T00:18:02.354Z,77.21
2017-08-23T00:18:12.068Z,77.46
2017-08-23T00:18:21.806Z,77.61
2017-08-23T00:18:36.741Z,77.70
2017-08-23T00:18:45.500Z,77.43
2017-08-23T00:18:55.257Z,77.60
2017-08-23T00:19:15.357Z,77.65
2017-08-23T00:19:28.568Z,77.84
2017-08-23T00:19:47.721Z,77.40
2017-08-23T00:20:01.757Z,77.61
2017-08-23T00:20:10.453Z,77.84
2017-08-23T00:20:20.190Z,77.74
2017-08-23T00:20:30.001Z,77.71
2017-08-23T00:20:39.684Z,77.78
2017-08-23T00:20:49.469Z,77.80
2017-08-23T00:20:59.162Z,77.75
2017-08-23T00:21:18.102Z,77.80
2017-08-23T00:21:32.878Z,77.90
2017-08-23T00:21:41.618Z,77.84
2017-08-23T00:22:02.268Z,77.74
2017-08-23T00:22:21.356Z,77.95
2017-08-23T00:22:30.544Z,77.83
2017-08-23T00:22:40.220Z,77.90
2017-08-23T00:22:55.183Z,77.88
2017-08-23T00:23:13.141Z,77.90
2017-08-23T00:23:27.892Z,77.94
2017-08-23T00:23:36.667Z,78.12
2017-08-23T00:23:46.405Z,77.96
2017-08-23T00:23:56.156Z,77.88
2017-08-23T00:24:12.085Z,77.85
2017-08-23T00:24:21.481Z,77.84
2017-08-23T00:24:31.196Z,77.79
2017-08-23T00:24:40.928Z,77.86
2017-08-23T00:24:50.688Z,77.77
2017-08-23T00:25:00.392Z,77.61
2017-08-23T00:25:10.149Z,77.88
2017-08-23T00:25:24.151Z,77.76
2017-08-23T00:25:33.852Z,77.88
2017-08-23T00:26:02.780Z,77.54
2017-08-23T00:26:12.570Z,77.82
2017-08-23T00:26:22.336Z,77.54
2017-08-23T00:26:37.185Z,77.82
2017-08-23T00:26:46.009Z,77.73
2017-08-23T00:27:00.924Z,77.71
2017-08-23T00:27:09.664Z,77.47
2017-08-23T00:27:19.387Z,77.98
2017-08-23T00:27:29.120Z,77.35
2017-08-23T00:27:38.881Z,77.64
2017-08-23T00:27:48.613Z,77.86
2017-08-23T00:27:58.360Z,77.75
2017-08-23T00:28:11.303Z,77.44
2017-08-23T00:28:30.620Z,77.66
2017-08-23T00:28:40.385Z,77.50
2017-08-23T00:28:50.108Z,77.72
2017-08-23T00:28:59.829Z,77.37
2017-08-23T00:29:09.569Z,77.61
2017-08-23T00:29:26.497Z,77.53
2017-08-23T00:29:55.674Z,77.84
2017-08-23T00:30:05.426Z,77.91
2017-08-23T00:30:23.221Z,77.93
2017-08-23T00:30:44.403Z,77.44
2017-08-23T00:30:53.401Z,77.98
2017-08-23T00:31:03.128Z,77.50
2017-08-23T00:31:12.825Z,77.79
2017-08-23T00:31:22.573Z,77.61
2017-08-23T00:31:37.549Z,77.63
2017-08-23T00:31:46.265Z,77.97
2017-08-23T00:31:56.013Z,77.94
2017-08-23T00:32:05.732Z,78.02
2017-08-23T00:32:21.884Z,77.73
2017-08-23T00:32:31.625Z,77.69
2017-08-23T00:32:41.418Z,77.88
2017-08-23T00:32:54.293Z,77.62
2017-08-23T00:33:04.060Z,77.98
2017-08-23T00:33:19.984Z,77.93
2017-08-23T00:33:29.325Z,77.69
2017-08-23T00:33:44.260Z,78.00
2017-08-23T00:34:10.627Z,77.97
2017-08-23T00:34:31.600Z,77.72
2017-08-23T00:34:41.354Z,77.64
2017-08-23T00:35:01.369Z,77.66
2017-08-23T00:35:15.650Z,78.09
2017-08-23T00:35:25.389Z,77.74
2017-08-23T00:35:35.118Z,77.95
2017-08-23T00:35:44.888Z,77.56
2017-08-23T00:35:54.625Z,77.88
2017-08-23T00:36:28.371Z,77.90
2017-08-23T00:36:52.517Z,77.89
2017-08-23T00:37:02.218Z,77.40
2017-08-23T00:37:11.974Z,77.62
2017-08-23T00:37:32.924Z,77.66
2017-08-23T00:37:47.427Z,77.40
2017-08-23T00:38:06.364Z,78.01
2017-08-23T00:38:15.949Z,78.02
2017-08-23T00:38:25.665Z,78.01
2017-08-23T00:38:40.567Z,78.02
2017-08-23T00:39:13.832Z,78.07
2017-08-23T00:39:24.124Z,77.87
2017-08-23T00:39:33.861Z,77.82
2017-08-23T00:39:43.591Z,77.89
2017-08-23T00:39:58.145Z,78.15
2017-08-23T00:40:09.461Z,78.18
2017-08-23T00:40:19.261Z,77.85
2017-08-23T00:40:45.177Z,77.87
2017-08-23T00:40:59.892Z,78.22
2017-08-23T00:41:08.641Z,77.87
2017-08-23T00:41:18.397Z,78.05
2017-08-23T00:41:28.148Z,78.14
2017-08-23T00:41:37.861Z,77.82
2017-08-23T00:41:54.791Z,78.07
2017-08-23T00:42:04.773Z,77.95
2017-08-23T00:42:14.513Z,77.98
2017-08-23T00:42:24.285Z,77.97
2017-08-23T00:42:39.175Z,77.71
2017-08-23T00:42:57.554Z,77.93
2017-08-23T00:43:08.879Z,78.18
2017-08-23T00:43:24.836Z,78.27
2017-08-23T00:43:34.193Z,78.25
2017-08-23T00:43:43.934Z,78.21
2017-08-23T00:43:53.686Z,77.81
2017-08-23T00:44:03.421Z,78.24
2017-08-23T00:44:13.144Z,77.95
2017-08-23T00:44:33.131Z,77.76
2017-08-23T00:44:53.701Z,77.81
2017-08-23T00:45:08.809Z,78.13
2017-08-23T00:45:17.556Z,78.01
2017-08-23T00:45:27.309Z,77.66
2017-08-23T00:45:37.049Z,78.04
2017-08-23T00:45:46.816Z,78.03
2017-08-23T00:45:56.551Z,78.14
2017-08-23T00:46:06.293Z,77.78
2017-08-23T00:46:16.024Z,77.98
2017-08-23T00:46:27.394Z,78.21
2017-08-23T00:46:43.469Z,78.22
2017-08-23T00:46:54.813Z,78.08
2017-08-23T00:47:04.541Z,77.74
2017-08-23T00:47:14.288Z,77.83
2017-08-23T00:47:25.634Z,77.80
2017-08-23T00:47:35.391Z,77.93
2017-08-23T00:47:45.108Z,78.09
2017-08-23T00:48:00.054Z,77.81
2017-08-23T00:48:08.888Z,77.76
2017-08-23T00:48:18.534Z,78.18
2017-08-23T00:48:28.320Z,78.13
2017-08-23T00:48:38.005Z,78.14
2017-08-23T00:48:52.967Z,78.09
2017-08-23T00:49:01.712Z,78.17
2017-08-23T00:49:11.469Z,77.79
2017-08-23T00:49:26.402Z,78.14
2017-08-23T00:49:35.173Z,77.74
2017-08-23T00:49:44.918Z,77.85
2017-08-23T00:49:54.649Z,77.98
2017-08-23T00:50:04.372Z,77.81
2017-08-23T00:50:20.309Z,78.19
2017-08-23T00:50:29.669Z,78.16
2017-08-23T00:50:49.837Z,78.22
2017-08-23T00:51:03.013Z,78.25
2017-08-23T00:51:21.990Z,78.26
2017-08-23T00:51:36.233Z,78.11
2017-08-23T00:51:46.645Z,78.17
2017-08-23T00:51:56.230Z,78.25
2017-08-23T00:52:05.937Z,77.85
2017-08-23T00:52:15.680Z,77.95
2017-08-23T00:52:30.633Z,77.86
2017-08-23T00:52:39.422Z,78.24
2017-08-23T00:52:49.137Z,78.06
2017-08-23T00:52:58.866Z,77.79
2017-08-23T00:53:08.602Z,78.22
2017-08-23T00:53:18.344Z,78.20
2017-08-23T00:53:33.491Z,78.17
2017-08-23T00:53:44.313Z,78.28
2017-08-23T00:53:56.677Z,78.24
2017-08-23T00:54:06.449Z,77.94
2017-08-23T00:54:16.180Z,77.91
2017-08-23T00:54:27.601Z,77.82
2017-08-23T00:54:45.256Z,77.87
2017-08-23T00:55:00.227Z,77.86
2017-08-23T00:55:10.664Z,78.24
2017-08-23T00:55:20.273Z,78.05
2017-08-23T00:55:30.014Z,77.85
2017-08-23T00:55:39.834Z,78.09
2017-08-23T00:55:58.672Z,78.26
2017-08-23T00:56:15.336Z,78.18
2017-08-23T00:56:25.612Z,77.99
2017-08-23T00:56:41.744Z,78.12
2017-08-23T00:56:51.525Z,78.03
2017-08-23T00:57:01.212Z,77.82
2017-08-23T00:57:10.976Z,77.81
2017-08-23T00:57:20.680Z,77.87
2017-08-23T00:57:30.424Z,78.14
2017-08-23T00:57:40.161Z,78.24
2017-08-23T00:57:54.725Z,77.85
2017-08-23T00:58:04.449Z,78.29
2017-08-23T00:58:19.373Z,77.93
2017-08-23T00:58:28.164Z,77.97
2017-08-23T00:58:43.343Z,77.87
2017-08-23T00:58:53.708Z,77.81
2017-08-23T00:59:13.647Z,77.80
2017-08-23T00:59:33.021Z,77.82
2017-08-23T01:00:01.601Z,77.77
2017-08-23T01:00:14.538Z,77.83
2017-08-23T01:00:29.130Z,77.93
2017-08-23T01:00:40.412Z,77.82
2017-08-23T01:00:50.165Z,78.16
2017-08-23T01:01:01.498Z,78.13
2017-08-23T01:01:12.938Z,78.08
2017-08-23T01:01:25.814Z,77.78
2017-08-23T01:01:51.518Z,78.37
2017-08-23T01:02:14.093Z,77.95
2017-08-23T01:02:30.981Z,78.06
2017-08-23T01:02:40.932Z,77.86
2017-08-23T01:02:50.689Z,77.86
2017-08-23T01:03:00.425Z,77.85
2017-08-23T01:03:10.157Z,77.95
2017-08-23T01:03:31.107Z,78.01
2017-08-23T01:03:40.877Z,78.00
2017-08-23T01:03:55.825Z,77.86
2017-08-23T01:04:04.562Z,77.89
2017-08-23T01:04:21.481Z,77.85
2017-08-23T01:04:31.508Z,77.90
2017-08-23T01:05:00.385Z,77.84
2017-08-23T01:05:14.956Z,77.85
2017-08-23T01:05:24.659Z,78.11
2017-08-23T01:05:34.441Z,77.82
2017-08-23T01:05:56.529Z,77.67
2017-08-23T01:06:10.892Z,78.08
2017-08-23T01:06:23.832Z,77.85
2017-08-23T01:06:50.776Z,77.82
2017-08-23T01:07:03.561Z,77.93
2017-08-23T01:07:13.311Z,77.66
2017-08-23T01:07:23.017Z,77.81
2017-08-23T01:07:32.749Z,77.66
2017-08-23T01:07:42.490Z,77.84
2017-08-23T01:07:52.230Z,77.69
2017-08-23T01:08:08.209Z,77.69
2017-08-23T01:08:17.532Z,77.98
2017-08-23T01:08:33.464Z,77.74
2017-08-23T01:08:42.895Z,77.69
2017-08-23T01:09:07.473Z,77.72
2017-08-23T01:09:36.748Z,77.98
2017-08-23T01:10:00.272Z,77.81
2017-08-23T01:10:14.918Z,77.81
2017-08-23T01:10:30.452Z,77.61
2017-08-23T01:10:39.218Z,77.67
2017-08-23T01:10:48.938Z,77.99
2017-08-23T01:10:58.696Z,77.79
2017-08-23T01:11:08.421Z,77.76
2017-08-23T01:11:18.148Z,78.25
2017-08-23T01:11:27.880Z,78.13
2017-08-23T01:11:39.282Z,77.59
2017-08-23T01:11:48.957Z,77.61
2017-08-23T01:11:58.783Z,78.01
2017-08-23T01:12:08.449Z,77.59
2017-08-23T01:12:18.382Z,77.68
2017-08-23T01:12:28.082Z,77.70
2017-08-23T01:12:37.672Z,77.58
2017-08-23T01:12:47.462Z,77.53
2017-08-23T01:12:57.145Z,77.66
2017-08-23T01:13:06.877Z,77.57
2017-08-23T01:13:25.784Z,77.61
2017-08-23T01:13:35.401Z,77.61
2017-08-23T01:13:45.137Z,77.46
2017-08-23T01:13:54.832Z,77.69
2017-08-23T01:14:04.576Z,77.63
2017-08-23T01:14:14.312Z,77.54
2017-08-23T01:14:24.062Z,77.50
2017-08-23T01:14:33.789Z,77.94
2017-08-23T01:14:43.541Z,77.54
2017-08-23T01:14:53.273Z,77.86
2017-08-23T01:15:03.012Z,77.67
2017-08-23T01:15:12.813Z,77.61
2017-08-23T01:15:22.473Z,78.01
2017-08-23T01:15:42.421Z,77.57
2017-08-23T01:15:52.858Z,77.49
2017-08-23T01:16:12.633Z,77.93
2017-08-23T01:16:32.000Z,78.08
2017-08-23T01:16:46.640Z,77.57
2017-08-23T01:16:55.419Z,77.84
2017-08-23T01:17:05.144Z,77.63
2017-08-23T01:17:14.882Z,77.75
2017-08-23T01:17:24.621Z,77.64
2017-08-23T01:17:34.409Z,77.66
2017-08-23T01:17:44.096Z,77.74
2017-08-23T01:17:53.832Z,77.87
2017-08-23T01:18:03.593Z,78.07
2017-08-23T01:18:13.324Z,77.72
2017-08-23T01:18:23.045Z,77.81
2017-08-23T01:18:32.789Z,77.79
2017-08-23T01:18:43.500Z,77.69
2017-08-23T01:18:52.301Z,77.81
2017-08-23T01:19:07.436Z,77.90
2017-08-23T01:19:19.270Z,77.74
2017-08-23T01:19:29.058Z,77.80
2017-08-23T01:19:38.745Z,77.72
2017-08-23T01:19:50.069Z,78.13
2017-08-23T01:20:00.061Z,77.69
2017-08-23T01:20:17.786Z,78.21
2017-08-23T01:20:32.010Z,78.15
2017-08-23T01:20:47.452Z,77.77
2017-08-23T01:21:06.546Z,77.75
2017-08-23T01:21:26.663Z,77.77
2017-08-23T01:21:42.257Z,77.73
2017-08-23T01:22:02.952Z,77.63
2017-08-23T01:22:22.378Z,77.76
2017-08-23T01:22:36.921Z,77.92
2017-08-23T01:22:45.612Z,77.97
2017-08-23T01:22:55.352Z,77.88
2017-08-23T01:23:05.160Z,78.09
2017-08-23T01:23:14.856Z,78.03
2017-08-23T01:23:53.413Z,77.76
2017-08-23T01:24:03.136Z,77.73
2017-08-23T01:24:12.880Z,77.97
2017-08-23T01:24:29.416Z,77.70
2017-08-23T01:24:46.164Z,77.68
2017-08-23T01:24:55.905Z,77.79
2017-08-23T01:25:05.633Z,77.71
2017-08-23T01:25:20.577Z,77.86
2017-08-23T01:25:31.001Z,78.14
2017-08-23T01:25:49.937Z,77.85
2017-08-23T01:26:15.549Z,77.82
2017-08-23T01:26:32.636Z,77.79
2017-08-23T01:26:42.350Z,77.73
2017-08-23T01:26:52.085Z,77.86
2017-08-23T01:27:01.870Z,77.87
2017-08-23T01:27:11.596Z,77.90
2017-08-23T01:27:44.112Z,78.48
2017-08-23T01:27:58.060Z,77.76
2017-08-23T01:28:14.016Z,78.02
2017-08-23T01:28:33.353Z,77.82
2017-08-23T01:28:50.709Z,78.24
2017-08-23T01:29:09.137Z,78.31
2017-08-23T01:29:25.150Z,77.93
2017-08-23T01:29:34.828Z,78.20
2017-08-23T01:29:44.565Z,78.25
2017-08-23T01:29:54.293Z,77.84
2017-08-23T01:30:04.029Z,77.86
2017-08-23T01:30:15.388Z,77.79
2017-08-23T01:30:30.316Z,77.80
2017-08-23T01:30:39.105Z,77.79
2017-08-23T01:30:48.838Z,78.03
2017-08-23T01:30:58.540Z,77.86
2017-08-23T01:31:08.348Z,77.76
2017-08-23T01:31:18.021Z,77.86
2017-08-23T01:31:27.789Z,77.76
2017-08-23T01:31:37.517Z,77.81
2017-08-23T01:31:48.857Z,77.73
2017-08-23T01:32:00.249Z,77.72
2017-08-23T01:32:15.121Z,78.06
2017-08-23T01:32:23.880Z,77.74
2017-08-23T01:32:33.630Z,77.81
2017-08-23T01:32:43.360Z,78.05
2017-08-23T01:32:53.120Z,77.94
2017-08-23T01:33:02.834Z,77.83
2017-08-23T01:33:12.572Z,77.71
2017-08-23T01:33:22.296Z,77.87
2017-08-23T01:33:32.056Z,77.92
2017-08-23T01:33:48.575Z,77.81
2017-08-23T01:33:57.369Z,78.07
2017-08-23T01:34:07.089Z,78.13
2017-08-23T01:34:16.817Z,77.87
2017-08-23T01:34:26.572Z,77.75
2017-08-23T01:34:36.320Z,77.90
2017-08-23T01:34:46.044Z,77.74
2017-08-23T01:35:09.001Z,77.86
2017-08-23T01:35:17.812Z,77.77
2017-08-23T01:35:37.720Z,77.97
2017-08-23T01:35:48.096Z,77.84
2017-08-23T01:35:57.671Z,77.97
2017-08-23T01:36:07.392Z,77.97
2017-08-23T01:36:17.161Z,78.13
2017-08-23T01:36:32.124Z,77.99
2017-08-23T01:36:42.593Z,78.02
2017-08-23T01:36:58.385Z,77.83
2017-08-23T01:37:07.752Z,77.86
2017-08-23T01:37:17.563Z,78.02
2017-08-23T01:37:27.228Z,77.99
2017-08-23T01:37:52.970Z,77.83
2017-08-23T01:38:09.881Z,77.93
2017-08-23T01:38:19.876Z,77.96
2017-08-23T01:38:29.604Z,77.70
2017-08-23T01:38:39.423Z,78.38
2017-08-23T01:38:49.085Z,78.29
2017-08-23T01:38:58.836Z,78.00
2017-08-23T01:39:18.854Z,77.85
2017-08-23T01:39:34.181Z,78.09
2017-08-23T01:39:42.870Z,77.93
2017-08-23T01:39:52.628Z,78.02
2017-08-23T01:40:02.368Z,78.08
2017-08-23T01:40:12.080Z,77.88
2017-08-23T01:40:31.097Z,78.58
2017-08-23T01:40:45.801Z,78.05
2017-08-23T01:40:54.559Z,78.10
2017-08-23T01:41:04.302Z,78.22
2017-08-23T01:41:14.033Z,77.90
2017-08-23T01:41:23.780Z,78.38
2017-08-23T01:41:33.504Z,78.01
2017-08-23T01:41:43.292Z,78.33
2017-08-23T01:41:53.004Z,77.95
2017-08-23T01:42:02.833Z,78.13
2017-08-23T01:42:12.513Z,78.06
2017-08-23T01:42:22.221Z,78.01
2017-08-23T01:42:32.017Z,78.24
2017-08-23T01:42:46.882Z,78.00
2017-08-23T01:42:55.631Z,78.50
2017-08-23T01:43:05.389Z,78.02
2017-08-23T01:43:15.192Z,77.83
2017-08-23T01:43:24.901Z,78.41
2017-08-23T01:43:40.808Z,78.07
2017-08-23T01:43:50.156Z,77.98
2017-08-23T01:43:59.905Z,78.06
2017-08-23T01:44:09.662Z,78.07
2017-08-23T01:44:19.403Z,78.50
2017-08-23T01:44:29.121Z,78.02
2017-08-23T01:44:56.858Z,78.25
2017-08-23T01:45:12.420Z,78.13
2017-08-23T01:45:26.368Z,78.43
2017-08-23T01:45:35.164Z,78.41
2017-08-23T01:45:44.892Z,78.45
2017-08-23T01:46:04.856Z,78.04
2017-08-23T01:46:20.417Z,78.13
2017-08-23T01:46:35.874Z,77.99
2017-08-23T01:46:44.612Z,78.06
2017-08-23T01:46:54.429Z,78.40
2017-08-23T01:47:04.102Z,78.60
2017-08-23T01:47:13.853Z,78.08
2017-08-23T01:47:23.578Z,77.98
2017-08-23T01:47:33.308Z,78.08
2017-08-23T01:47:43.057Z,78.44
2017-08-23T01:47:52.812Z,77.99
2017-08-23T01:48:02.541Z,78.63
2017-08-23T01:48:12.289Z,78.66
2017-08-23T01:48:22.012Z,78.67
2017-08-23T01:48:31.736Z,78.30
2017-08-23T01:48:41.473Z,78.40
2017-08-23T01:48:56.415Z,78.20
2017-08-23T01:49:05.181Z,78.17
2017-08-23T01:49:20.141Z,78.66
2017-08-23T01:49:28.972Z,78.66
2017-08-23T01:49:43.836Z,78.27
2017-08-23T01:49:52.657Z,78.18
2017-08-23T01:50:02.315Z,78.77
2017-08-23T01:50:12.120Z,78.49
2017-08-23T01:50:21.798Z,78.78
2017-08-23T01:50:31.528Z,78.65
2017-08-23T01:50:41.281Z,78.21
2017-08-23T01:50:51.085Z,78.16
2017-08-23T01:51:00.757Z,78.60
2017-08-23T01:51:10.579Z,78.08
2017-08-23T01:51:29.430Z,78.83
2017-08-23T01:51:38.984Z,78.66
2017-08-23T01:51:48.796Z,78.49
2017-08-23T01:52:03.712Z,78.16
2017-08-23T01:52:12.436Z,78.73
2017-08-23T01:52:28.334Z,78.60
2017-08-23T01:52:37.728Z,78.11
2017-08-23T01:52:52.709Z,78.69
2017-08-23T01:53:11.875Z,78.15
2017-08-23T01:53:25.065Z,78.66
2017-08-23T01:53:34.189Z,78.39
2017-08-23T01:53:43.890Z,78.73
2017-08-23T01:53:53.657Z,78.03
2017-08-23T01:54:08.586Z,78.01
2017-08-23T01:54:17.357Z,78.29
2017-08-23T01:54:32.293Z,78.60
2017-08-23T01:54:41.041Z,78.28
2017-08-23T01:54:50.777Z,78.58
2017-08-23T01:55:00.508Z,78.75
2017-08-23T01:55:10.257Z,78.38
2017-08-23T01:55:25.193Z,78.57
2017-08-23T01:55:33.978Z,78.60
2017-08-23T01:55:43.692Z,78.51
2017-08-23T01:55:59.181Z,78.79
2017-08-23T01:56:14.734Z,78.19
2017-08-23T01:56:29.788Z,78.66
2017-08-23T01:56:38.529Z,78.73
2017-08-23T01:56:48.289Z,78.56
2017-08-23T01:56:58.034Z,78.57
2017-08-23T01:57:07.760Z,78.70
2017-08-23T01:57:17.499Z,78.25
2017-08-23T01:57:27.217Z,78.72
2017-08-23T01:57:43.173Z,78.79
2017-08-23T01:57:52.521Z,78.37
2017-08-23T01:58:02.237Z,78.77
2017-08-23T01:58:11.988Z,78.26
2017-08-23T01:58:21.744Z,78.81
2017-08-23T01:58:31.480Z,78.42
2017-08-23T01:58:41.204Z,78.89
2017-08-23T01:58:50.980Z,78.32
2017-08-23T01:59:00.704Z,78.54
2017-08-23T01:59:10.436Z,78.55
2017-08-23T01:59:25.486Z,78.19
2017-08-23T01:59:35.877Z,78.82
2017-08-23T01:59:45.472Z,78.40
2017-08-23T01:59:55.200Z,78.70
2017-08-23T02:00:16.469Z,78.85
2017-08-23T02:00:54.624Z,78.41
2017-08-23T02:01:03.365Z,78.57
2017-08-23T02:01:18.312Z,78.79
2017-08-23T02:01:27.069Z,78.77
2017-08-23T02:01:36.845Z,78.57
2017-08-23T02:01:56.913Z,78.96
2017-08-23T02:02:10.206Z,78.68
2017-08-23T02:02:24.477Z,78.81
2017-08-23T02:02:33.245Z,78.86
2017-08-23T02:02:42.976Z,78.33
2017-08-23T02:02:52.718Z,78.69
2017-08-23T02:03:08.637Z,78.94
2017-08-23T02:03:18.021Z,78.68
2017-08-23T02:03:27.764Z,78.84
2017-08-23T02:03:37.509Z,78.39
2017-08-23T02:03:47.232Z,78.93
2017-08-23T02:03:56.968Z,78.85
2017-08-23T02:04:06.701Z,79.01
2017-08-23T02:04:26.890Z,78.83
2017-08-23T02:04:46.086Z,78.91
2017-08-23T02:04:55.608Z,78.87
2017-08-23T02:05:05.334Z,78.94
2017-08-23T02:05:21.244Z,78.88
2017-08-23T02:05:30.631Z,78.44
2017-08-23T02:05:40.388Z,78.59
2017-08-23T02:05:50.160Z,78.47
2017-08-23T02:05:59.834Z,79.11
2017-08-23T02:06:09.612Z,78.98
2017-08-23T02:06:19.300Z,79.04
2017-08-23T02:06:29.127Z,79.35
2017-08-23T02:06:38.768Z,79.02
2017-08-23T02:06:57.894Z,79.00
2017-08-23T02:07:18.064Z,78.98
2017-08-23T02:07:27.638Z,79.01
2017-08-23T02:07:37.388Z,78.26
2017-08-23T02:07:47.164Z,78.52
2017-08-23T02:07:56.875Z,79.03
2017-08-23T02:08:06.598Z,78.92
2017-08-23T02:08:16.386Z,79.00
2017-08-23T02:08:26.085Z,78.98
2017-08-23T02:08:35.812Z,79.09
2017-08-23T02:08:51.252Z,78.96
2017-08-23T02:09:01.137Z,79.15
2017-08-23T02:09:10.857Z,78.76
2017-08-23T02:09:20.584Z,78.52
2017-08-23T02:09:30.331Z,79.14
2017-08-23T02:09:40.088Z,79.08
2017-08-23T02:09:56.044Z,78.55
2017-08-23T02:10:05.369Z,78.77
2017-08-23T02:10:15.113Z,79.00
2017-08-23T02:10:24.969Z,79.07
2017-08-23T02:10:34.604Z,78.59
2017-08-23T02:10:44.316Z,79.15
2017-08-23T02:10:54.061Z,78.95
2017-08-23T02:11:03.796Z,78.84
2017-08-23T02:11:13.526Z,79.13
2017-08-23T02:11:23.247Z,79.21
2017-08-23T02:11:33.000Z,79.13
2017-08-23T02:11:48.941Z,79.00
2017-08-23T02:11:58.329Z,78.62
2017-08-23T02:12:14.468Z,78.75
2017-08-23T02:12:24.163Z,78.61
2017-08-23T02:12:33.920Z,79.36
2017-08-23T02:12:43.656Z,78.70
2017-08-23T02:12:58.600Z,79.06
2017-08-23T02:13:07.348Z,78.93
2017-08-23T02:13:17.097Z,79.27
2017-08-23T02:13:26.824Z,79.31
2017-08-23T02:13:44.576Z,79.27
2017-08-23T02:13:55.913Z,78.96
2017-08-23T02:14:05.631Z,78.81
2017-08-23T02:14:15.373Z,78.82
2017-08-23T02:14:30.314Z,79.22
2017-08-23T02:14:42.409Z,79.49
2017-08-23T02:14:57.222Z,79.34
2017-08-23T02:15:05.968Z,78.91
2017-08-23T02:15:21.951Z,79.36
2017-08-23T02:15:31.283Z,79.37
2017-08-23T02:15:45.772Z,78.79
2017-08-23T02:15:55.349Z,79.44
2017-08-23T02:16:04.725Z,79.37
2017-08-23T02:16:19.656Z,79.19
2017-08-23T02:16:34.828Z,79.06
2017-08-23T02:16:44.664Z,78.84
2017-08-23T02:16:59.492Z,79.37
2017-08-23T02:17:08.260Z,79.39
2017-08-23T02:17:27.404Z,78.97
2017-08-23T02:17:40.995Z,79.30
2017-08-23T02:17:50.728Z,79.38
2017-08-23T02:18:00.472Z,79.27
2017-08-23T02:18:10.205Z,79.33
2017-08-23T02:18:20.038Z,79.09
2017-08-23T02:18:29.696Z,79.42
2017-08-23T02:18:44.628Z,79.31
2017-08-23T02:18:53.501Z,79.37
2017-08-23T02:19:03.146Z,79.08
2017-08-23T02:19:12.864Z,79.35
2017-08-23T02:19:22.696Z,78.99
2017-08-23T02:19:38.581Z,79.35
2017-08-23T02:19:49.525Z,79.37
2017-08-23T02:19:59.262Z,79.25
2017-08-23T02:20:08.981Z,79.43
2017-08-23T02:20:18.705Z,79.35
2017-08-23T02:20:28.466Z,79.45
2017-08-23T02:20:38.212Z,79.14
2017-08-23T02:20:47.939Z,79.30
2017-08-23T02:20:57.668Z,79.42
2017-08-23T02:21:07.520Z,79.60
2017-08-23T02:21:17.170Z,79.52
2017-08-23T02:21:26.910Z,78.80
2017-08-23T02:21:36.704Z,79.43
2017-08-23T02:21:46.369Z,79.49
2017-08-23T02:21:56.092Z,79.36
2017-08-23T02:22:11.096Z,78.94
2017-08-23T02:22:19.792Z,79.47
2017-08-23T02:22:29.753Z,79.44
2017-08-23T02:22:39.343Z,79.13
2017-08-23T02:22:49.001Z,79.38
2017-08-23T02:23:17.121Z,79.44
2017-08-23T02:23:27.140Z,79.42
2017-08-23T02:23:42.052Z,79.40
2017-08-23T02:23:55.525Z,79.39
2017-08-23T02:24:04.781Z,78.62
2017-08-23T02:24:14.500Z,78.64
2017-08-23T02:24:24.253Z,79.34
2017-08-23T02:24:43.177Z,79.21
2017-08-23T02:24:52.785Z,79.20
2017-08-23T02:25:02.492Z,79.14
2017-08-23T02:25:12.245Z,79.40
2017-08-23T02:25:21.988Z,79.37
2017-08-23T02:25:31.717Z,78.61
2017-08-23T02:25:41.445Z,78.75
2017-08-23T02:25:51.216Z,79.18
2017-08-23T02:26:00.921Z,79.34
2017-08-23T02:26:10.645Z,79.20
2017-08-23T02:26:20.400Z,79.29
2017-08-23T02:26:35.341Z,79.31
2017-08-23T02:26:49.288Z,78.89
2017-08-23T02:26:58.049Z,79.56
2017-08-23T02:27:07.792Z,78.66
2017-08-23T02:27:17.530Z,79.41
2017-08-23T02:27:27.308Z,78.77
2017-08-23T02:27:37.065Z,78.59
2017-08-23T02:27:52.194Z,78.82
2017-08-23T02:28:02.573Z,79.35
2017-08-23T02:28:12.153Z,79.30
2017-08-23T02:28:21.868Z,79.27
2017-08-23T02:28:31.612Z,79.00
2017-08-23T02:28:41.354Z,78.71
2017-08-23T02:28:51.105Z,79.46
2017-08-23T02:29:00.832Z,79.39
2017-08-23T02:29:10.574Z,78.81
2017-08-23T02:29:20.309Z,79.22
2017-08-23T02:29:35.232Z,78.88
2017-08-23T02:29:44.092Z,78.71
2017-08-23T02:29:53.760Z,79.38
2017-08-23T02:30:03.503Z,79.39
2017-08-23T02:30:13.217Z,78.77
2017-08-23T02:30:22.996Z,78.80
2017-08-23T02:30:32.704Z,79.52
2017-08-23T02:30:42.434Z,78.83
2017-08-23T02:30:52.207Z,79.59
2017-08-23T02:31:01.921Z,79.00
2017-08-23T02:31:12.028Z,79.14
2017-08-23T02:31:21.390Z,79.29
2017-08-23T02:31:31.217Z,78.73
2017-08-23T02:31:40.865Z,78.68
2017-08-23T02:31:50.637Z,78.73
2017-08-23T02:32:05.566Z,79.25
2017-08-23T02:32:14.366Z,79.56
2017-08-23T02:32:30.436Z,79.52
2017-08-23T02:32:40.181Z,79.01
2017-08-23T02:32:49.912Z,79.47
2017-08-23T02:33:04.856Z,79.34
2017-08-23T02:33:13.625Z,79.59
2017-08-23T02:33:23.374Z,79.10
2017-08-23T02:33:33.096Z,79.27
2017-08-23T02:33:42.829Z,79.01
2017-08-23T02:33:52.576Z,79.43
2017-08-23T02:34:02.336Z,78.75
2017-08-23T02:34:12.048Z,79.05